createdAt,value
2019-03-28T00:01:43.265Z,8.33
2019-03-28T00:04:48.815Z,7.60
2019-03-28T00:07:57.156Z,7.70
2019-03-28T00:11:02.879Z,8.20
2019-03-28T00:14:08.737Z,5.97
2019-03-28T00:17:50.176Z,7.63
2019-03-28T00:20:57.679Z,7.60
2019-03-28T00:24:25.102Z,8.70
2019-03-28T00:27:33.609Z,6.23
2019-03-28T00:30:44.462Z,8.30
2019-03-28T00:33:58.431Z,7.33
2019-03-28T00:37:09.134Z,8.60
2019-03-28T00:40:14.853Z,6.90
2019-03-28T00:43:20.094Z,7.00
2019-03-28T00:46:32.819Z,7.73
2019-03-28T00:49:38.333Z,7.20
2019-03-28T00:52:55.585Z,7.43
2019-03-28T00:56:03.491Z,7.67
2019-03-28T00:59:10.539Z,8.80
2019-03-28T01:02:19.377Z,9.23
2019-03-28T01:05:34.161Z,9.10
2019-03-28T01:09:15.431Z,10.40
2019-03-28T01:12:29.381Z,9.80
2019-03-28T01:15:49.997Z,8.70
2019-03-28T01:19:17.079Z,8.80
2019-03-28T01:22:26.342Z,9.07
2019-03-28T01:25:32.358Z,8.60
2019-03-28T01:28:41.190Z,9.90
2019-03-28T01:32:06.905Z,8.43
2019-03-28T01:35:39.582Z,9.03
2019-03-28T01:38:45.250Z,7.00
2019-03-28T01:45:23.599Z,8.63
2019-03-28T01:48:38.277Z,8.27
2019-03-28T01:51:54.109Z,8.57
2019-03-28T01:55:02.459Z,7.70
2019-03-28T01:58:28.498Z,7.70
2019-03-28T02:01:36.496Z,7.20
2019-03-28T02:04:42.459Z,7.67
2019-03-28T02:07:53.737Z,6.80
2019-03-28T02:11:02.198Z,7.33
2019-03-28T02:14:07.884Z,8.20
2019-03-28T02:17:21.362Z,8.70
2019-03-28T02:23:47.806Z,8.17
2019-03-28T02:26:59.501Z,7.53
2019-03-28T02:30:05.737Z,8.53
2019-03-28T02:33:26.319Z,9.13
2019-03-28T02:36:57.179Z,7.43
2019-03-28T02:40:05.861Z,7.80
2019-03-28T02:43:15.936Z,7.13
2019-03-28T02:46:27.486Z,7.60
2019-03-28T03:05:45.927Z,8.10
2019-03-28T03:09:11.143Z,7.77
2019-03-28T03:12:19.451Z,6.70
2019-03-28T03:15:34.710Z,7.90
2019-03-28T03:18:45.461Z,8.30
2019-03-28T03:26:03.794Z,7.83
2019-03-28T03:29:11.901Z,7.87
2019-03-28T03:32:21.391Z,7.10
2019-03-28T03:39:36.338Z,7.47
2019-03-28T03:42:48.239Z,6.73
2019-03-28T03:45:55.434Z,5.93
2019-03-28T03:49:02.968Z,6.53
2019-03-28T03:52:08.582Z,6.63
2019-03-28T03:55:32.403Z,6.23
2019-03-28T03:58:47.138Z,6.33
2019-03-28T04:02:05.872Z,6.50
2019-03-28T04:05:14.497Z,7.20
2019-03-28T04:08:24.322Z,5.43
2019-03-28T04:11:33.175Z,6.40
2019-03-28T04:14:49.505Z,7.10
2019-03-28T04:18:03.640Z,7.10
2019-03-28T04:21:14.397Z,7.20
2019-03-28T04:24:22.718Z,7.97
2019-03-28T04:28:07.155Z,7.50
2019-03-28T04:31:15.903Z,5.57
2019-03-28T04:34:21.599Z,6.97
2019-03-28T04:37:27.211Z,6.57
2019-03-28T04:40:41.493Z,6.70
2019-03-28T04:43:46.909Z,7.00
2019-03-28T04:46:52.842Z,7.03
2019-03-28T04:50:00.580Z,7.10
2019-03-28T04:53:06.118Z,6.63
2019-03-28T04:56:14.621Z,7.00
2019-03-28T04:59:22.196Z,6.03
2019-03-28T05:02:31.346Z,5.70
2019-03-28T05:05:37.559Z,6.77
2019-03-28T05:08:45.335Z,6.17
2019-03-28T05:12:29.798Z,6.50
2019-03-28T05:15:52.658Z,5.67
2019-03-28T05:19:03.428Z,5.43
2019-03-28T05:22:11.336Z,6.07
2019-03-28T05:25:19.849Z,6.53
2019-03-28T05:28:29.454Z,5.87
2019-03-28T05:31:37.045Z,5.87
2019-03-28T05:34:45.570Z,7.43
2019-03-28T05:37:51.262Z,6.27
2019-03-28T05:41:07.068Z,5.33
2019-03-28T05:44:15.252Z,6.97
2019-03-28T05:47:22.290Z,5.67
2019-03-28T05:50:39.960Z,7.27
2019-03-28T05:54:03.573Z,7.20
2019-03-28T05:57:11.205Z,6.40
2019-03-28T06:00:16.862Z,7.30
2019-03-28T06:03:22.362Z,5.73
2019-03-28T06:06:28.115Z,6.20
2019-03-28T06:09:33.939Z,5.87
2019-03-28T06:12:39.627Z,5.53
2019-03-28T06:15:46.384Z,6.20
2019-03-28T06:26:29.679Z,5.57
2019-03-28T06:29:35.124Z,5.50
2019-03-28T06:33:04.510Z,4.57
2019-03-28T06:36:09.989Z,5.00
2019-03-28T06:40:18.407Z,4.83
2019-03-28T06:43:26.285Z,4.83
2019-03-28T06:46:31.662Z,4.30
2019-03-28T06:49:37.071Z,4.83
2019-03-28T06:52:53.222Z,4.60
2019-03-28T06:55:58.761Z,5.40
2019-03-28T06:59:04.184Z,5.50
2019-03-28T07:02:10.441Z,5.60
2019-03-28T07:05:16.254Z,5.30
2019-03-28T07:08:21.673Z,5.43
2019-03-28T07:11:46.473Z,4.97
2019-03-28T07:14:51.866Z,5.43
2019-03-28T07:17:57.561Z,5.50
2019-03-28T07:21:05.549Z,5.87
2019-03-28T07:24:19.887Z,4.97
2019-03-28T07:27:25.331Z,5.23
2019-03-28T07:30:30.855Z,4.50
2019-03-28T07:40:49.538Z,5.50
2019-03-28T07:43:56.287Z,5.17
2019-03-28T07:59:19.606Z,5.10
2019-03-28T08:02:36.798Z,5.17
2019-03-28T08:05:51.908Z,5.50
2019-03-28T08:13:47.683Z,4.63
2019-03-28T08:16:54.403Z,4.73
2019-03-28T08:24:44.114Z,4.87
2019-03-28T08:27:49.549Z,5.37
2019-03-28T08:30:54.890Z,4.83
2019-03-28T08:34:02.986Z,6.17
2019-03-28T08:37:24.943Z,5.57
2019-03-28T08:40:39.495Z,5.87
2019-03-28T08:43:43.385Z,5.60
2019-03-28T08:47:00.940Z,5.03
2019-03-28T08:50:13.227Z,6.07
2019-03-28T08:53:18.493Z,6.17
2019-03-28T08:56:24.041Z,5.67
2019-03-28T08:59:29.385Z,5.60
2019-03-28T09:02:35.047Z,6.47
2019-03-28T09:05:42.942Z,6.40
2019-03-28T09:09:09.940Z,8.00
2019-03-28T09:12:41.768Z,7.73
2019-03-28T09:15:53.050Z,8.43
2019-03-28T09:19:15.951Z,7.33
2019-03-28T09:22:22.711Z,7.63
2019-03-28T09:29:13.496Z,7.97
2019-03-28T09:32:58.593Z,7.47
2019-03-28T09:36:07.525Z,8.00
2019-03-28T09:39:15.981Z,8.03
2019-03-28T09:42:31.319Z,7.40
2019-03-28T09:45:41.622Z,8.17
2019-03-28T09:56:16.765Z,7.70
2019-03-28T10:02:44.283Z,6.73
2019-03-28T10:06:40.621Z,6.17
2019-03-28T10:09:55.878Z,6.33
2019-03-28T10:13:36.488Z,4.43
2019-03-28T10:16:42.085Z,4.23
2019-03-28T10:19:53.011Z,4.17
2019-03-28T10:23:05.812Z,4.17
2019-03-28T10:26:11.360Z,4.47
2019-03-28T10:29:17.937Z,4.30
2019-03-28T10:35:48.054Z,3.23
2019-03-28T10:38:59.406Z,3.17
2019-03-28T10:42:07.165Z,3.27
2019-03-28T10:45:14.864Z,2.80
2019-03-28T10:48:38.862Z,2.73
2019-03-28T10:51:50.513Z,3.00
2019-03-28T11:11:40.404Z,2.07
2019-03-28T11:14:46.390Z,2.27
2019-03-28T11:18:26.379Z,2.27
2019-03-28T11:29:59.551Z,1.50
2019-03-28T11:33:27.919Z,1.50
2019-03-28T11:36:37.869Z,1.10
2019-03-28T11:39:51.108Z,1.30
2019-03-28T11:44:11.599Z,1.13
2019-03-28T11:55:13.937Z,1.20
2019-03-28T12:02:42.556Z,0.80
2019-03-28T12:06:50.652Z,0.70
2019-03-28T12:22:40.787Z,0.60
2019-03-28T12:25:58.071Z,0.60
2019-03-28T12:29:06.595Z,1.00
2019-03-28T12:32:31.633Z,0.60
2019-03-28T12:35:37.530Z,0.63
2019-03-28T12:42:11.160Z,0.60
2019-03-28T12:45:17.275Z,0.80
2019-03-28T12:51:31.262Z,0.80
2019-03-28T12:54:36.466Z,0.90
2019-03-28T12:57:41.833Z,1.10
2019-03-28T13:00:50.998Z,1.00
2019-03-28T13:03:56.157Z,0.80
2019-03-28T13:07:01.491Z,0.90
2019-03-28T13:10:07.979Z,1.57
2019-03-28T13:13:13.411Z,1.10
2019-03-28T13:16:19.004Z,1.37
2019-03-28T13:19:37.528Z,1.40
2019-03-28T13:22:43.232Z,1.70
2019-03-28T13:25:48.445Z,1.70
2019-03-28T13:28:54.091Z,1.93
2019-03-28T13:31:59.810Z,1.70
2019-03-28T13:42:05.876Z,1.63
2019-03-28T13:48:30.465Z,1.80
2019-03-28T13:51:35.707Z,1.90
2019-03-28T13:54:40.894Z,1.90
2019-03-28T13:57:47.864Z,1.93
2019-03-28T14:00:56.640Z,1.70
2019-03-28T14:04:04.671Z,1.40
2019-03-28T14:07:10.009Z,1.40
2019-03-28T14:10:21.850Z,1.90
2019-03-28T14:13:32.677Z,1.80
2019-03-28T14:16:40.692Z,2.13
2019-03-28T14:19:46.016Z,1.80
2019-03-28T14:22:57.557Z,2.27
2019-03-28T14:26:03.142Z,1.97
2019-03-28T14:29:16.606Z,1.87
2019-03-28T14:32:22.459Z,2.30
2019-03-28T14:35:33.718Z,2.07
2019-03-28T14:39:13.081Z,1.93
2019-03-28T14:42:19.914Z,1.67
2019-03-28T14:45:51.842Z,1.87
2019-03-28T14:48:57.038Z,2.57
2019-03-28T14:52:03.840Z,1.70
2019-03-28T14:55:11.352Z,1.73
2019-03-28T14:58:21.975Z,2.40
2019-03-28T15:01:33.725Z,2.03
2019-03-28T15:04:47.435Z,1.90
2019-03-28T15:07:52.815Z,1.70
2019-03-28T15:11:51.896Z,1.73
2019-03-28T15:22:36.422Z,1.43
2019-03-28T15:25:41.401Z,1.33
2019-03-28T15:28:49.488Z,1.50
2019-03-28T15:31:59.665Z,1.77
2019-03-28T15:35:24.371Z,1.63
2019-03-28T15:42:36.558Z,1.30
2019-03-28T15:57:25.498Z,1.50
2019-03-28T16:00:48.329Z,1.60
2019-03-28T16:03:56.173Z,1.70
2019-03-28T16:07:00.989Z,1.40
2019-03-28T16:10:06.607Z,1.60
2019-03-28T16:13:11.506Z,1.70
2019-03-28T16:16:16.419Z,1.47
2019-03-28T16:19:21.271Z,1.70
2019-03-28T16:22:26.104Z,1.33
2019-03-28T16:25:32.455Z,1.30
2019-03-28T16:28:37.347Z,1.50
2019-03-28T16:31:42.186Z,1.43
2019-03-28T16:34:47.022Z,1.87
2019-03-28T16:37:51.884Z,1.53
2019-03-28T16:40:58.822Z,1.57
2019-03-28T16:44:03.752Z,1.30
2019-03-28T16:47:08.607Z,1.33
2019-03-28T16:50:13.779Z,1.47
2019-03-28T16:53:18.596Z,1.40
2019-03-28T16:56:23.444Z,1.60
2019-03-28T16:59:28.313Z,1.30
2019-03-28T17:02:33.171Z,1.13
2019-03-28T17:05:39.313Z,1.37
2019-03-28T17:08:45.656Z,1.40
2019-03-28T17:11:50.561Z,1.00
2019-03-28T17:14:55.406Z,1.20
2019-03-28T17:18:00.233Z,1.83
2019-03-28T17:21:06.439Z,1.57
2019-03-28T17:24:11.315Z,1.30
2019-03-28T17:27:16.160Z,1.40
2019-03-28T17:30:21.146Z,1.30
2019-03-28T17:33:25.986Z,1.23
2019-03-28T17:36:30.834Z,1.40
2019-03-28T17:39:35.667Z,1.70
2019-03-28T17:42:40.561Z,1.47
2019-03-28T17:45:45.426Z,1.20
2019-03-28T17:48:50.258Z,1.37
2019-03-28T17:51:55.243Z,1.30
2019-03-28T17:55:01.369Z,1.47
2019-03-28T17:58:06.240Z,1.60
2019-03-28T18:01:11.139Z,1.20
2019-03-28T18:04:22.706Z,1.60
2019-03-28T18:07:22.742Z,1.60
2019-03-28T18:10:27.596Z,1.57
2019-03-28T18:13:32.479Z,1.40
2019-03-28T18:16:37.323Z,2.20
2019-03-28T18:19:42.189Z,1.87
2019-03-28T18:22:48.596Z,1.73
2019-03-28T18:25:53.990Z,2.40
2019-03-28T18:28:58.835Z,2.50
2019-03-28T18:32:03.721Z,2.20
2019-03-28T18:35:09.477Z,3.27
2019-03-28T18:38:17.318Z,3.17
2019-03-28T18:41:22.192Z,2.83
2019-03-28T18:44:29.801Z,3.30
2019-03-28T18:47:34.699Z,3.40
2019-03-28T18:50:41.142Z,3.07
2019-03-28T18:53:46.235Z,3.47
2019-03-28T18:56:51.089Z,3.40
2019-03-28T18:59:56.002Z,3.70
2019-03-28T19:03:00.875Z,3.77
2019-03-28T19:06:05.841Z,4.57
2019-03-28T19:09:10.701Z,4.83
2019-03-28T19:12:15.646Z,5.77
2019-03-28T19:15:20.544Z,5.57
2019-03-28T19:18:25.730Z,6.40
2019-03-28T19:21:30.779Z,5.67
2019-03-28T19:24:35.725Z,5.50
2019-03-28T19:27:40.798Z,5.53
2019-03-28T19:30:47.044Z,5.80
2019-03-28T19:33:51.968Z,6.10
2019-03-28T19:36:57.952Z,6.83
2019-03-28T19:40:06.943Z,6.77
2019-03-28T19:43:20.427Z,7.50
2019-03-28T19:46:17.990Z,7.60
2019-03-28T19:49:23.490Z,8.70
2019-03-28T19:52:28.550Z,9.03
2019-03-28T19:55:33.444Z,8.97
2019-03-28T19:58:38.425Z,8.83
2019-03-28T20:01:43.354Z,9.87
2019-03-28T20:04:48.330Z,10.33
2019-03-28T20:07:53.260Z,10.70
2019-03-28T20:10:58.176Z,10.13
2019-03-28T20:14:03.077Z,9.73
2019-03-28T20:17:07.954Z,9.90
2019-03-28T20:20:13.056Z,10.27
2019-03-28T20:23:17.921Z,10.80
2019-03-28T20:26:22.819Z,10.13
2019-03-28T20:29:27.714Z,11.07
2019-03-28T20:32:32.588Z,10.33
2019-03-28T20:35:40.623Z,9.43
2019-03-28T20:38:48.575Z,9.33
2019-03-28T20:41:52.162Z,10.10
2019-03-28T20:44:57.100Z,9.97
2019-03-28T20:48:02.049Z,10.63
2019-03-28T20:51:07.025Z,9.13
2019-03-28T20:54:11.895Z,8.77
2019-03-28T20:57:16.812Z,8.90
2019-03-28T21:00:41.752Z,8.77
2019-03-28T21:03:49.449Z,8.77
2019-03-28T21:06:53.326Z,9.40
2019-03-28T21:09:58.193Z,9.60
2019-03-28T21:13:04.859Z,9.40
2019-03-28T21:16:09.697Z,10.03
2019-03-28T21:19:14.674Z,10.47
2019-03-28T21:22:20.844Z,9.53
2019-03-28T21:25:25.770Z,9.13
2019-03-28T21:28:30.601Z,9.70
2019-03-28T21:31:48.867Z,9.80
2019-03-28T21:34:42.022Z,9.60
2019-03-28T21:37:46.860Z,9.20
2019-03-28T21:40:51.743Z,9.13
2019-03-28T21:43:56.915Z,8.50
2019-03-28T21:47:01.739Z,8.30
2019-03-28T21:50:06.669Z,8.07
2019-03-28T21:53:14.540Z,8.03
2019-03-28T21:56:19.383Z,9.53
2019-03-28T21:59:24.215Z,8.43
2019-03-28T22:02:29.680Z,8.40
2019-03-28T22:14:20.081Z,9.23
2019-03-28T22:18:17.909Z,8.50
2019-03-28T22:25:22.511Z,8.70
2019-03-28T22:28:33.083Z,9.57
2019-03-28T22:31:44.583Z,9.57
2019-03-28T22:42:31.310Z,9.93
2019-03-28T22:58:13.925Z,9.57
2019-03-28T23:01:41.219Z,10.10
2019-03-28T23:09:40.418Z,9.87
2019-03-28T23:21:17.979Z,10.27
2019-03-28T23:24:44.019Z,9.83
2019-03-28T23:31:50.829Z,11.40
2019-03-28T23:39:53.400Z,10.87
2019-03-28T23:43:06.762Z,11.03
2019-03-28T23:50:27.725Z,11.43
